sensor_id;sensor_type;location;lat;lon;timestamp;P1;durP1;ratioP1;P2;durP2;ratioP2
489;SDS011;231;48.120;11.576;2023-03-23T00:02:03;4.77;;;4.23;;
489;SDS011;231;48.120;11.576;2023-03-23T00:04:30;3.80;;;3.60;;
489;SDS011;231;48.120;11.576;2023-03-23T00:06:57;4.70;;;3.67;;
489;SDS011;231;48.120;11.576;2023-03-23T00:09:25;3.50;;;3.30;;
489;SDS011;231;48.120;11.576;2023-03-23T00:11:54;3.23;;;3.07;;
489;SDS011;231;48.120;11.576;2023-03-23T00:14:22;4.77;;;3.33;;
489;SDS011;231;48.120;11.576;2023-03-23T00:16:49;4.63;;;3.60;;
489;SDS011;231;48.120;11.576;2023-03-23T00:19:17;4.67;;;3.80;;
489;SDS011;231;48.120;11.576;2023-03-23T00:21:45;4.57;;;3.67;;
489;SDS011;231;48.120;11.576;2023-03-23T00:24:13;4.37;;;4.07;;
489;SDS011;231;48.120;11.576;2023-03-23T00:26:42;3.57;;;3.27;;
489;SDS011;231;48.120;11.576;2023-03-23T00:29:13;5.67;;;3.27;;
489;SDS011;231;48.120;11.576;2023-03-23T00:31:41;5.77;;;3.40;;
489;SDS011;231;48.120;11.576;2023-03-23T00:34:12;5.50;;;3.73;;
489;SDS011;231;48.120;11.576;2023-03-23T00:36:43;3.30;;;3.10;;
489;SDS011;231;48.120;11.576;2023-03-23T00:39:10;5.57;;;3.83;;
489;SDS011;231;48.120;11.576;2023-03-23T00:41:37;3.53;;;3.17;;
489;SDS011;231;48.120;11.576;2023-03-23T00:44:04;3.67;;;3.47;;
489;SDS011;231;48.120;11.576;2023-03-23T00:46:34;3.50;;;3.23;;
489;SDS011;231;48.120;11.576;2023-03-23T00:49:09;6.27;;;3.87;;
489;SDS011;231;48.120;11.576;2023-03-23T00:51:37;5.03;;;3.80;;
489;SDS011;231;48.120;11.576;2023-03-23T00:54:04;3.73;;;3.30;;
489;SDS011;231;48.120;11.576;2023-03-23T00:56:31;4.90;;;3.57;;
489;SDS011;231;48.120;11.576;2023-03-23T00:58:58;3.07;;;2.87;;
489;SDS011;231;48.120;11.576;2023-03-23T01:01:25;3.43;;;3.23;;
489;SDS011;231;48.120;11.576;2023-03-23T01:03:53;2.83;;;2.70;;
489;SDS011;231;48.120;11.576;2023-03-23T01:06:25;2.70;;;2.50;;
489;SDS011;231;48.120;11.576;2023-03-23T01:08:53;5.93;;;2.37;;
489;SDS011;231;48.120;11.576;2023-03-23T01:11:21;3.90;;;3.40;;
489;SDS011;231;48.120;11.576;2023-03-23T01:13:48;5.23;;;2.90;;
489;SDS011;231;48.120;11.576;2023-03-23T01:16:15;3.17;;;2.50;;
489;SDS011;231;48.120;11.576;2023-03-23T01:18:42;4.30;;;3.27;;
489;SDS011;231;48.120;11.576;2023-03-23T01:21:12;2.50;;;2.30;;
489;SDS011;231;48.120;11.576;2023-03-23T01:23:40;7.53;;;2.83;;
489;SDS011;231;48.120;11.576;2023-03-23T01:26:07;3.03;;;2.60;;
489;SDS011;231;48.120;11.576;2023-03-23T01:28:36;2.90;;;2.70;;
489;SDS011;231;48.120;11.576;2023-03-23T01:31:03;9.80;;;2.70;;
489;SDS011;231;48.120;11.576;2023-03-23T01:33:32;4.50;;;3.40;;
489;SDS011;231;48.120;11.576;2023-03-23T01:36:02;5.23;;;2.37;;
489;SDS011;231;48.120;11.576;2023-03-23T01:38:32;3.57;;;2.97;;
489;SDS011;231;48.120;11.576;2023-03-23T01:40:59;2.57;;;2.40;;
489;SDS011;231;48.120;11.576;2023-03-23T01:43:27;3.33;;;3.17;;
489;SDS011;231;48.120;11.576;2023-03-23T01:45:54;4.63;;;2.57;;
489;SDS011;231;48.120;11.576;2023-03-23T01:48:22;2.87;;;2.70;;
489;SDS011;231;48.120;11.576;2023-03-23T01:50:53;2.83;;;2.70;;
489;SDS011;231;48.120;11.576;2023-03-23T01:53:24;4.70;;;2.97;;
489;SDS011;231;48.120;11.576;2023-03-23T01:55:56;3.37;;;2.73;;
489;SDS011;231;48.120;11.576;2023-03-23T01:58:25;2.60;;;2.40;;
489;SDS011;231;48.120;11.576;2023-03-23T02:00:54;3.90;;;2.70;;
489;SDS011;231;48.120;11.576;2023-03-23T02:03:24;2.77;;;2.57;;
489;SDS011;231;48.120;11.576;2023-03-23T02:05:50;3.40;;;2.20;;
489;SDS011;231;48.120;11.576;2023-03-23T02:08:18;2.43;;;2.23;;
489;SDS011;231;48.120;11.576;2023-03-23T02:10:45;4.77;;;2.53;;
489;SDS011;231;48.120;11.576;2023-03-23T02:13:13;5.87;;;2.77;;
489;SDS011;231;48.120;11.576;2023-03-23T02:15:43;2.50;;;2.30;;
489;SDS011;231;48.120;11.576;2023-03-23T02:18:16;2.93;;;2.13;;
489;SDS011;231;48.120;11.576;2023-03-23T02:21:01;2.67;;;2.50;;
489;SDS011;231;48.120;11.576;2023-03-23T02:26:55;3.90;;;2.10;;
489;SDS011;231;48.120;11.576;2023-03-23T02:29:34;2.53;;;2.33;;
489;SDS011;231;48.120;11.576;2023-03-23T02:35:19;3.60;;;2.20;;
489;SDS011;231;48.120;11.576;2023-03-23T02:37:49;3.47;;;2.93;;
489;SDS011;231;48.120;11.576;2023-03-23T02:40:23;3.20;;;2.30;;
489;SDS011;231;48.120;11.576;2023-03-23T02:42:55;2.67;;;2.47;;
489;SDS011;231;48.120;11.576;2023-03-23T02:45:23;2.33;;;2.13;;
489;SDS011;231;48.120;11.576;2023-03-23T02:47:52;2.60;;;2.40;;
489;SDS011;231;48.120;11.576;2023-03-23T02:50:23;3.27;;;3.07;;
489;SDS011;231;48.120;11.576;2023-03-23T02:52:53;3.13;;;2.70;;
489;SDS011;231;48.120;11.576;2023-03-23T02:55:23;2.50;;;2.17;;
489;SDS011;231;48.120;11.576;2023-03-23T02:57:51;2.30;;;2.10;;
489;SDS011;231;48.120;11.576;2023-03-23T03:00:19;2.63;;;2.50;;
489;SDS011;231;48.120;11.576;2023-03-23T03:02:48;3.00;;;2.80;;
489;SDS011;231;48.120;11.576;2023-03-23T03:05:21;4.90;;;2.57;;
489;SDS011;231;48.120;11.576;2023-03-23T03:08:00;2.90;;;2.70;;
489;SDS011;231;48.120;11.576;2023-03-23T03:10:44;3.50;;;2.40;;
489;SDS011;231;48.120;11.576;2023-03-23T03:13:19;6.53;;;2.30;;
489;SDS011;231;48.120;11.576;2023-03-23T03:16:01;1.90;;;1.80;;
489;SDS011;231;48.120;11.576;2023-03-23T03:18:34;3.47;;;2.40;;
489;SDS011;231;48.120;11.576;2023-03-23T03:21:07;2.37;;;2.20;;
489;SDS011;231;48.120;11.576;2023-03-23T03:23:40;3.37;;;2.47;;
489;SDS011;231;48.120;11.576;2023-03-23T03:26:09;5.50;;;2.60;;
489;SDS011;231;48.120;11.576;2023-03-23T03:28:42;3.23;;;2.30;;
489;SDS011;231;48.120;11.576;2023-03-23T03:31:13;2.70;;;2.00;;
489;SDS011;231;48.120;11.576;2023-03-23T03:33:41;3.63;;;2.83;;
489;SDS011;231;48.120;11.576;2023-03-23T03:36:14;3.27;;;2.83;;
489;SDS011;231;48.120;11.576;2023-03-23T03:38:43;2.90;;;2.70;;
489;SDS011;231;48.120;11.576;2023-03-23T03:41:11;3.70;;;2.37;;
489;SDS011;231;48.120;11.576;2023-03-23T03:43:39;3.03;;;2.40;;
489;SDS011;231;48.120;11.576;2023-03-23T03:46:06;3.10;;;2.60;;
489;SDS011;231;48.120;11.576;2023-03-23T03:48:33;2.93;;;2.73;;
489;SDS011;231;48.120;11.576;2023-03-23T03:51:00;4.10;;;2.73;;
489;SDS011;231;48.120;11.576;2023-03-23T03:53:29;3.13;;;2.23;;
489;SDS011;231;48.120;11.576;2023-03-23T03:55:56;3.03;;;2.83;;
489;SDS011;231;48.120;11.576;2023-03-23T03:58:25;3.10;;;2.57;;
489;SDS011;231;48.120;11.576;2023-03-23T04:00:56;3.17;;;3.00;;
489;SDS011;231;48.120;11.576;2023-03-23T04:03:23;3.47;;;3.27;;
489;SDS011;231;48.120;11.576;2023-03-23T04:05:51;2.43;;;2.20;;
489;SDS011;231;48.120;11.576;2023-03-23T04:08:20;2.50;;;2.33;;
489;SDS011;231;48.120;11.576;2023-03-23T04:10:48;5.03;;;2.77;;
489;SDS011;231;48.120;11.576;2023-03-23T04:13:15;2.73;;;2.53;;
489;SDS011;231;48.120;11.576;2023-03-23T04:15:43;2.57;;;2.37;;
489;SDS011;231;48.120;11.576;2023-03-23T04:18:10;2.87;;;2.67;;
489;SDS011;231;48.120;11.576;2023-03-23T04:20:39;5.60;;;3.50;;
489;SDS011;231;48.120;11.576;2023-03-23T04:23:07;2.60;;;2.40;;
489;SDS011;231;48.120;11.576;2023-03-23T04:25:33;2.33;;;2.23;;
489;SDS011;231;48.120;11.576;2023-03-23T04:28:02;3.97;;;2.53;;
489;SDS011;231;48.120;11.576;2023-03-23T04:30:29;3.47;;;2.73;;
489;SDS011;231;48.120;11.576;2023-03-23T04:32:56;2.50;;;2.30;;
489;SDS011;231;48.120;11.576;2023-03-23T04:35:26;2.97;;;2.77;;
489;SDS011;231;48.120;11.576;2023-03-23T04:37:54;2.80;;;2.60;;
489;SDS011;231;48.120;11.576;2023-03-23T04:40:22;10.03;;;3.13;;
489;SDS011;231;48.120;11.576;2023-03-23T04:42:49;5.40;;;3.23;;
489;SDS011;231;48.120;11.576;2023-03-23T04:45:20;3.27;;;2.47;;
489;SDS011;231;48.120;11.576;2023-03-23T04:47:47;3.53;;;2.37;;
489;SDS011;231;48.120;11.576;2023-03-23T04:50:19;2.70;;;2.50;;
489;SDS011;231;48.120;11.576;2023-03-23T04:52:49;2.63;;;2.43;;
489;SDS011;231;48.120;11.576;2023-03-23T04:55:17;3.10;;;2.90;;
489;SDS011;231;48.120;11.576;2023-03-23T04:57:45;2.40;;;2.23;;
489;SDS011;231;48.120;11.576;2023-03-23T05:00:13;2.40;;;2.20;;
489;SDS011;231;48.120;11.576;2023-03-23T05:02:43;2.20;;;2.03;;
489;SDS011;231;48.120;11.576;2023-03-23T05:05:11;3.13;;;2.93;;
489;SDS011;231;48.120;11.576;2023-03-23T05:07:40;2.57;;;2.37;;
489;SDS011;231;48.120;11.576;2023-03-23T05:10:08;2.13;;;1.97;;
489;SDS011;231;48.120;11.576;2023-03-23T05:12:36;4.60;;;2.67;;
489;SDS011;231;48.120;11.576;2023-03-23T05:15:04;2.43;;;2.27;;
489;SDS011;231;48.120;11.576;2023-03-23T05:17:32;5.67;;;3.20;;
489;SDS011;231;48.120;11.576;2023-03-23T05:20:02;2.47;;;2.27;;
489;SDS011;231;48.120;11.576;2023-03-23T05:22:33;4.47;;;2.80;;
489;SDS011;231;48.120;11.576;2023-03-23T05:25:01;3.00;;;2.40;;
489;SDS011;231;48.120;11.576;2023-03-23T05:27:29;2.90;;;2.50;;
489;SDS011;231;48.120;11.576;2023-03-23T05:29:57;2.90;;;2.30;;
489;SDS011;231;48.120;11.576;2023-03-23T05:32:26;2.90;;;2.70;;
489;SDS011;231;48.120;11.576;2023-03-23T05:34:55;3.33;;;3.13;;
489;SDS011;231;48.120;11.576;2023-03-23T05:37:24;2.97;;;2.53;;
489;SDS011;231;48.120;11.576;2023-03-23T05:39:53;3.17;;;2.70;;
489;SDS011;231;48.120;11.576;2023-03-23T05:42:21;3.20;;;3.00;;
489;SDS011;231;48.120;11.576;2023-03-23T05:44:49;3.20;;;3.03;;
489;SDS011;231;48.120;11.576;2023-03-23T05:47:16;4.00;;;2.13;;
489;SDS011;231;48.120;11.576;2023-03-23T05:49:43;3.30;;;2.33;;
489;SDS011;231;48.120;11.576;2023-03-23T05:52:10;3.23;;;3.10;;
489;SDS011;231;48.120;11.576;2023-03-23T05:54:38;5.50;;;2.27;;
489;SDS011;231;48.120;11.576;2023-03-23T05:57:06;3.80;;;3.00;;
489;SDS011;231;48.120;11.576;2023-03-23T05:59:33;3.20;;;2.00;;
489;SDS011;231;48.120;11.576;2023-03-23T06:02:00;3.07;;;2.83;;
489;SDS011;231;48.120;11.576;2023-03-23T06:04:27;2.77;;;2.57;;
489;SDS011;231;48.120;11.576;2023-03-23T06:06:54;3.17;;;2.90;;
489;SDS011;231;48.120;11.576;2023-03-23T06:09:21;3.80;;;2.50;;
489;SDS011;231;48.120;11.576;2023-03-23T06:11:51;2.60;;;2.40;;
489;SDS011;231;48.120;11.576;2023-03-23T06:14:18;3.60;;;2.57;;
489;SDS011;231;48.120;11.576;2023-03-23T06:16:46;3.10;;;3.00;;
489;SDS011;231;48.120;11.576;2023-03-23T06:19:13;3.03;;;2.83;;
489;SDS011;231;48.120;11.576;2023-03-23T06:21:40;2.60;;;2.40;;
489;SDS011;231;48.120;11.576;2023-03-23T06:24:07;3.83;;;2.90;;
489;SDS011;231;48.120;11.576;2023-03-23T06:26:35;4.30;;;3.20;;
489;SDS011;231;48.120;11.576;2023-03-23T06:29:05;2.73;;;2.50;;
489;SDS011;231;48.120;11.576;2023-03-23T06:31:36;3.57;;;2.57;;
489;SDS011;231;48.120;11.576;2023-03-23T06:34:04;5.50;;;2.97;;
489;SDS011;231;48.120;11.576;2023-03-23T06:36:31;3.33;;;2.33;;
489;SDS011;231;48.120;11.576;2023-03-23T06:38:57;3.27;;;2.60;;
489;SDS011;231;48.120;11.576;2023-03-23T06:41:24;2.50;;;2.30;;
489;SDS011;231;48.120;11.576;2023-03-23T06:43:51;3.97;;;2.87;;
489;SDS011;231;48.120;11.576;2023-03-23T06:46:20;2.33;;;2.13;;
489;SDS011;231;48.120;11.576;2023-03-23T06:48:47;2.83;;;2.50;;
489;SDS011;231;48.120;11.576;2023-03-23T06:51:14;7.33;;;2.80;;
489;SDS011;231;48.120;11.576;2023-03-23T06:53:41;3.97;;;3.03;;
489;SDS011;231;48.120;11.576;2023-03-23T06:56:08;4.03;;;2.43;;
489;SDS011;231;48.120;11.576;2023-03-23T06:58:36;3.90;;;2.63;;
489;SDS011;231;48.120;11.576;2023-03-23T07:01:04;3.20;;;2.30;;
489;SDS011;231;48.120;11.576;2023-03-23T07:03:33;3.40;;;2.43;;
489;SDS011;231;48.120;11.576;2023-03-23T07:06:00;4.20;;;2.60;;
489;SDS011;231;48.120;11.576;2023-03-23T07:08:28;2.03;;;1.90;;
489;SDS011;231;48.120;11.576;2023-03-23T07:10:55;1.80;;;1.70;;
489;SDS011;231;48.120;11.576;2023-03-23T07:13:24;2.60;;;2.40;;
489;SDS011;231;48.120;11.576;2023-03-23T07:15:52;2.13;;;1.97;;
489;SDS011;231;48.120;11.576;2023-03-23T07:18:19;1.90;;;1.80;;
489;SDS011;231;48.120;11.576;2023-03-23T07:20:48;2.60;;;2.40;;
489;SDS011;231;48.120;11.576;2023-03-23T07:23:15;3.27;;;1.90;;
489;SDS011;231;48.120;11.576;2023-03-23T07:25:43;2.60;;;1.97;;
489;SDS011;231;48.120;11.576;2023-03-23T07:28:10;2.23;;;2.10;;
489;SDS011;231;48.120;11.576;2023-03-23T07:30:38;1.93;;;1.83;;
489;SDS011;231;48.120;11.576;2023-03-23T07:33:05;4.20;;;2.00;;
489;SDS011;231;48.120;11.576;2023-03-23T07:35:33;4.37;;;1.80;;
489;SDS011;231;48.120;11.576;2023-03-23T07:38:02;3.40;;;1.93;;
489;SDS011;231;48.120;11.576;2023-03-23T07:40:30;2.53;;;2.33;;
489;SDS011;231;48.120;11.576;2023-03-23T07:42:58;5.00;;;3.60;;
489;SDS011;231;48.120;11.576;2023-03-23T07:45:26;2.70;;;2.50;;
489;SDS011;231;48.120;11.576;2023-03-23T07:47:52;2.80;;;2.60;;
489;SDS011;231;48.120;11.576;2023-03-23T07:50:20;2.20;;;2.00;;
489;SDS011;231;48.120;11.576;2023-03-23T07:52:49;4.93;;;2.50;;
489;SDS011;231;48.120;11.576;2023-03-23T07:55:17;1.97;;;1.87;;
489;SDS011;231;48.120;11.576;2023-03-23T07:57:44;2.57;;;2.37;;
489;SDS011;231;48.120;11.576;2023-03-23T08:00:12;4.67;;;1.77;;
489;SDS011;231;48.120;11.576;2023-03-23T08:02:43;4.23;;;2.13;;
489;SDS011;231;48.120;11.576;2023-03-23T08:05:10;3.23;;;2.50;;
489;SDS011;231;48.120;11.576;2023-03-23T08:07:38;1.63;;;1.53;;
489;SDS011;231;48.120;11.576;2023-03-23T08:10:05;2.20;;;1.80;;
489;SDS011;231;48.120;11.576;2023-03-23T08:12:37;3.80;;;2.50;;
489;SDS011;231;48.120;11.576;2023-03-23T08:15:05;2.30;;;1.93;;
489;SDS011;231;48.120;11.576;2023-03-23T08:17:34;1.73;;;1.63;;
489;SDS011;231;48.120;11.576;2023-03-23T08:20:01;1.90;;;1.80;;
489;SDS011;231;48.120;11.576;2023-03-23T08:22:36;3.20;;;2.23;;
489;SDS011;231;48.120;11.576;2023-03-23T08:25:04;2.50;;;2.10;;
489;SDS011;231;48.120;11.576;2023-03-23T08:27:33;3.33;;;2.40;;
489;SDS011;231;48.120;11.576;2023-03-23T08:30:01;6.47;;;1.90;;
489;SDS011;231;48.120;11.576;2023-03-23T08:32:30;2.50;;;2.30;;
489;SDS011;231;48.120;11.576;2023-03-23T08:34:56;2.70;;;1.90;;
489;SDS011;231;48.120;11.576;2023-03-23T08:37:24;2.93;;;2.70;;
489;SDS011;231;48.120;11.576;2023-03-23T08:39:51;2.70;;;2.33;;
489;SDS011;231;48.120;11.576;2023-03-23T08:42:19;2.60;;;2.37;;
489;SDS011;231;48.120;11.576;2023-03-23T08:44:47;2.27;;;2.07;;
489;SDS011;231;48.120;11.576;2023-03-23T08:47:15;1.67;;;1.57;;
489;SDS011;231;48.120;11.576;2023-03-23T08:49:43;3.60;;;2.07;;
489;SDS011;231;48.120;11.576;2023-03-23T08:52:10;6.10;;;2.07;;
489;SDS011;231;48.120;11.576;2023-03-23T08:54:38;2.43;;;2.23;;
489;SDS011;231;48.120;11.576;2023-03-23T08:57:06;1.90;;;1.80;;
489;SDS011;231;48.120;11.576;2023-03-23T08:59:32;8.83;;;2.90;;
489;SDS011;231;48.120;11.576;2023-03-23T09:01:59;4.23;;;2.63;;
489;SDS011;231;48.120;11.576;2023-03-23T09:04:28;4.87;;;2.90;;
489;SDS011;231;48.120;11.576;2023-03-23T09:06:55;2.73;;;2.40;;
489;SDS011;231;48.120;11.576;2023-03-23T09:09:23;2.60;;;2.03;;
489;SDS011;231;48.120;11.576;2023-03-23T09:11:49;3.40;;;2.50;;
489;SDS011;231;48.120;11.576;2023-03-23T09:14:16;4.73;;;2.60;;
489;SDS011;231;48.120;11.576;2023-03-23T09:16:43;5.40;;;2.73;;
489;SDS011;231;48.120;11.576;2023-03-23T09:19:11;4.33;;;2.63;;
489;SDS011;231;48.120;11.576;2023-03-23T09:21:39;3.10;;;2.97;;
489;SDS011;231;48.120;11.576;2023-03-23T09:24:06;5.10;;;3.10;;
489;SDS011;231;48.120;11.576;2023-03-23T09:26:34;2.70;;;2.50;;
489;SDS011;231;48.120;11.576;2023-03-23T09:29:01;2.93;;;2.67;;
489;SDS011;231;48.120;11.576;2023-03-23T09:31:28;4.50;;;3.93;;
489;SDS011;231;48.120;11.576;2023-03-23T09:33:56;4.70;;;2.97;;
489;SDS011;231;48.120;11.576;2023-03-23T09:36:24;3.10;;;2.70;;
489;SDS011;231;48.120;11.576;2023-03-23T09:38:55;2.70;;;2.50;;
489;SDS011;231;48.120;11.576;2023-03-23T09:41:33;4.33;;;2.53;;
489;SDS011;231;48.120;11.576;2023-03-23T09:44:22;3.63;;;3.10;;
489;SDS011;231;48.120;11.576;2023-03-23T09:46:55;9.23;;;4.57;;
489;SDS011;231;48.120;11.576;2023-03-23T09:49:26;3.47;;;3.10;;
489;SDS011;231;48.120;11.576;2023-03-23T09:51:59;4.10;;;2.83;;
489;SDS011;231;48.120;11.576;2023-03-23T09:54:33;3.03;;;2.83;;
489;SDS011;231;48.120;11.576;2023-03-23T09:57:03;3.77;;;3.10;;
489;SDS011;231;48.120;11.576;2023-03-23T09:59:37;5.10;;;2.83;;
489;SDS011;231;48.120;11.576;2023-03-23T10:02:10;4.40;;;2.90;;
489;SDS011;231;48.120;11.576;2023-03-23T10:04:43;3.33;;;3.10;;
489;SDS011;231;48.120;11.576;2023-03-23T10:07:13;3.13;;;2.93;;
489;SDS011;231;48.120;11.576;2023-03-23T10:09:44;3.77;;;3.57;;
489;SDS011;231;48.120;11.576;2023-03-23T10:12:19;4.60;;;3.87;;
489;SDS011;231;48.120;11.576;2023-03-23T10:14:56;4.97;;;3.60;;
489;SDS011;231;48.120;11.576;2023-03-23T10:17:39;4.07;;;3.83;;
489;SDS011;231;48.120;11.576;2023-03-23T10:20:21;4.30;;;3.97;;
489;SDS011;231;48.120;11.576;2023-03-23T10:23:23;4.70;;;4.40;;
489;SDS011;231;48.120;11.576;2023-03-23T10:26:17;4.80;;;4.50;;
489;SDS011;231;48.120;11.576;2023-03-23T10:28:53;4.37;;;4.07;;
489;SDS011;231;48.120;11.576;2023-03-23T10:31:23;5.40;;;5.10;;
489;SDS011;231;48.120;11.576;2023-03-23T10:33:54;6.60;;;4.60;;
489;SDS011;231;48.120;11.576;2023-03-23T10:36:24;5.77;;;5.03;;
489;SDS011;231;48.120;11.576;2023-03-23T10:38:56;4.50;;;4.20;;
489;SDS011;231;48.120;11.576;2023-03-23T10:41:28;5.60;;;4.70;;
489;SDS011;231;48.120;11.576;2023-03-23T10:43:56;7.17;;;4.97;;
489;SDS011;231;48.120;11.576;2023-03-23T10:46:27;4.67;;;4.40;;
489;SDS011;231;48.120;11.576;2023-03-23T10:49:00;4.23;;;3.60;;
489;SDS011;231;48.120;11.576;2023-03-23T10:51:32;4.17;;;3.93;;
489;SDS011;231;48.120;11.576;2023-03-23T10:54:03;3.50;;;3.30;;
489;SDS011;231;48.120;11.576;2023-03-23T10:56:36;4.67;;;4.40;;
489;SDS011;231;48.120;11.576;2023-03-23T10:59:11;4.67;;;3.97;;
489;SDS011;231;48.120;11.576;2023-03-23T11:01:41;4.40;;;4.10;;
489;SDS011;231;48.120;11.576;2023-03-23T11:04:11;8.17;;;4.67;;
489;SDS011;231;48.120;11.576;2023-03-23T11:06:42;4.83;;;4.40;;
489;SDS011;231;48.120;11.576;2023-03-23T11:09:12;3.90;;;3.60;;
489;SDS011;231;48.120;11.576;2023-03-23T11:11:43;3.70;;;3.50;;
489;SDS011;231;48.120;11.576;2023-03-23T11:14:15;4.27;;;4.00;;
489;SDS011;231;48.120;11.576;2023-03-23T11:16:45;4.57;;;4.27;;
489;SDS011;231;48.120;11.576;2023-03-23T11:19:21;17.03;;;4.80;;
489;SDS011;231;48.120;11.576;2023-03-23T11:21:50;6.07;;;3.80;;
489;SDS011;231;48.120;11.576;2023-03-23T11:24:18;3.57;;;3.37;;
489;SDS011;231;48.120;11.576;2023-03-23T11:26:49;4.93;;;4.33;;
489;SDS011;231;48.120;11.576;2023-03-23T11:29:18;4.57;;;3.77;;
489;SDS011;231;48.120;11.576;2023-03-23T11:31:48;4.60;;;4.30;;
489;SDS011;231;48.120;11.576;2023-03-23T11:34:18;4.40;;;3.93;;
489;SDS011;231;48.120;11.576;2023-03-23T11:36:47;6.27;;;3.40;;
489;SDS011;231;48.120;11.576;2023-03-23T11:39:19;4.53;;;4.23;;
489;SDS011;231;48.120;11.576;2023-03-23T11:41:49;4.50;;;3.57;;
489;SDS011;231;48.120;11.576;2023-03-23T11:44:17;3.97;;;3.30;;
489;SDS011;231;48.120;11.576;2023-03-23T11:46:46;5.70;;;4.00;;
489;SDS011;231;48.120;11.576;2023-03-23T11:49:20;3.97;;;3.77;;
489;SDS011;231;48.120;11.576;2023-03-23T11:51:55;3.33;;;2.50;;
489;SDS011;231;48.120;11.576;2023-03-23T11:54:28;4.77;;;4.00;;
489;SDS011;231;48.120;11.576;2023-03-23T11:56:59;3.70;;;3.60;;
489;SDS011;231;48.120;11.576;2023-03-23T11:59:27;4.00;;;3.80;;
489;SDS011;231;48.120;11.576;2023-03-23T12:01:58;4.43;;;3.33;;
489;SDS011;231;48.120;11.576;2023-03-23T12:04:40;3.73;;;3.53;;
489;SDS011;231;48.120;11.576;2023-03-23T12:07:33;4.07;;;3.87;;
489;SDS011;231;48.120;11.576;2023-03-23T12:10:12;4.03;;;3.10;;
489;SDS011;231;48.120;11.576;2023-03-23T12:12:53;4.60;;;3.40;;
489;SDS011;231;48.120;11.576;2023-03-23T12:15:32;3.97;;;3.77;;
489;SDS011;231;48.120;11.576;2023-03-23T12:18:09;4.90;;;4.13;;
489;SDS011;231;48.120;11.576;2023-03-23T12:20:47;3.00;;;2.80;;
489;SDS011;231;48.120;11.576;2023-03-23T12:23:23;4.90;;;4.17;;
489;SDS011;231;48.120;11.576;2023-03-23T12:25:59;4.60;;;3.53;;
489;SDS011;231;48.120;11.576;2023-03-23T12:28:48;4.63;;;3.90;;
489;SDS011;231;48.120;11.576;2023-03-23T12:31:33;6.93;;;5.23;;
489;SDS011;231;48.120;11.576;2023-03-23T12:34:10;5.90;;;3.90;;
489;SDS011;231;48.120;11.576;2023-03-23T12:36:53;3.90;;;3.60;;
489;SDS011;231;48.120;11.576;2023-03-23T12:39:35;6.33;;;3.50;;
489;SDS011;231;48.120;11.576;2023-03-23T12:42:18;4.50;;;3.43;;
489;SDS011;231;48.120;11.576;2023-03-23T12:44:56;4.47;;;3.50;;
489;SDS011;231;48.120;11.576;2023-03-23T12:47:36;3.70;;;3.50;;
489;SDS011;231;48.120;11.576;2023-03-23T12:50:11;9.73;;;3.97;;
489;SDS011;231;48.120;11.576;2023-03-23T12:52:43;4.40;;;4.10;;
489;SDS011;231;48.120;11.576;2023-03-23T12:55:21;3.90;;;3.70;;
489;SDS011;231;48.120;11.576;2023-03-23T12:57:54;9.53;;;4.27;;
489;SDS011;231;48.120;11.576;2023-03-23T13:00:27;3.47;;;3.03;;
489;SDS011;231;48.120;11.576;2023-03-23T13:02:59;9.53;;;3.20;;
489;SDS011;231;48.120;11.576;2023-03-23T13:05:33;2.80;;;2.60;;
489;SDS011;231;48.120;11.576;2023-03-23T13:08:10;3.27;;;3.13;;
489;SDS011;231;48.120;11.576;2023-03-23T13:10:41;5.20;;;3.30;;
489;SDS011;231;48.120;11.576;2023-03-23T13:13:13;3.67;;;2.60;;
489;SDS011;231;48.120;11.576;2023-03-23T13:15:46;2.70;;;2.50;;
489;SDS011;231;48.120;11.576;2023-03-23T13:18:23;2.23;;;2.03;;
489;SDS011;231;48.120;11.576;2023-03-23T13:21:01;3.37;;;2.73;;
489;SDS011;231;48.120;11.576;2023-03-23T13:23:40;2.93;;;2.47;;
489;SDS011;231;48.120;11.576;2023-03-23T13:26:10;2.20;;;2.00;;
489;SDS011;231;48.120;11.576;2023-03-23T13:28:48;3.10;;;2.10;;
489;SDS011;231;48.120;11.576;2023-03-23T13:31:22;5.77;;;2.50;;
489;SDS011;231;48.120;11.576;2023-03-23T13:33:52;3.67;;;1.90;;
489;SDS011;231;48.120;11.576;2023-03-23T13:36:26;2.80;;;2.20;;
489;SDS011;231;48.120;11.576;2023-03-23T13:38:55;2.67;;;1.97;;
489;SDS011;231;48.120;11.576;2023-03-23T13:41:24;2.07;;;1.93;;
489;SDS011;231;48.120;11.576;2023-03-23T13:43:52;1.83;;;1.70;;
489;SDS011;231;48.120;11.576;2023-03-23T13:46:31;5.20;;;2.30;;
489;SDS011;231;48.120;11.576;2023-03-23T13:49:04;4.23;;;2.10;;
489;SDS011;231;48.120;11.576;2023-03-23T13:54:43;2.53;;;2.33;;
489;SDS011;231;48.120;11.576;2023-03-23T13:57:23;3.13;;;3.00;;
489;SDS011;231;48.120;11.576;2023-03-23T13:59:57;2.23;;;2.00;;
489;SDS011;231;48.120;11.576;2023-03-23T14:02:30;3.87;;;2.30;;
489;SDS011;231;48.120;11.576;2023-03-23T14:05:09;3.33;;;2.43;;
489;SDS011;231;48.120;11.576;2023-03-23T14:07:55;3.83;;;2.00;;
489;SDS011;231;48.120;11.576;2023-03-23T14:10:25;3.73;;;2.60;;
489;SDS011;231;48.120;11.576;2023-03-23T14:12:58;1.53;;;1.53;;
489;SDS011;231;48.120;11.576;2023-03-23T14:15:28;4.60;;;2.00;;
489;SDS011;231;48.120;11.576;2023-03-23T14:17:57;3.37;;;2.90;;
489;SDS011;231;48.120;11.576;2023-03-23T14:20:30;2.93;;;1.97;;
489;SDS011;231;48.120;11.576;2023-03-23T14:23:02;2.70;;;2.50;;
489;SDS011;231;48.120;11.576;2023-03-23T14:25:30;2.70;;;2.10;;
489;SDS011;231;48.120;11.576;2023-03-23T14:27:57;3.37;;;2.23;;
489;SDS011;231;48.120;11.576;2023-03-23T14:30:25;3.40;;;2.10;;
489;SDS011;231;48.120;11.576;2023-03-23T14:33:04;5.10;;;2.50;;
489;SDS011;231;48.120;11.576;2023-03-23T14:35:34;2.40;;;2.20;;
489;SDS011;231;48.120;11.576;2023-03-23T14:38:02;4.90;;;2.47;;
489;SDS011;231;48.120;11.576;2023-03-23T14:40:30;2.70;;;2.50;;
489;SDS011;231;48.120;11.576;2023-03-23T14:42:57;3.93;;;2.90;;
489;SDS011;231;48.120;11.576;2023-03-23T14:45:25;5.27;;;2.20;;
489;SDS011;231;48.120;11.576;2023-03-23T14:47:53;2.27;;;1.97;;
489;SDS011;231;48.120;11.576;2023-03-23T14:50:24;2.07;;;1.83;;
489;SDS011;231;48.120;11.576;2023-03-23T14:52:56;2.40;;;2.23;;
489;SDS011;231;48.120;11.576;2023-03-23T14:55:24;2.10;;;1.80;;
489;SDS011;231;48.120;11.576;2023-03-23T14:57:53;1.80;;;1.70;;
489;SDS011;231;48.120;11.576;2023-03-23T15:00:21;3.30;;;1.80;;
489;SDS011;231;48.120;11.576;2023-03-23T15:02:52;2.00;;;1.90;;
489;SDS011;231;48.120;11.576;2023-03-23T15:05:22;2.07;;;1.83;;
489;SDS011;231;48.120;11.576;2023-03-23T15:07:57;3.40;;;2.43;;
489;SDS011;231;48.120;11.576;2023-03-23T15:10:28;2.67;;;2.47;;
489;SDS011;231;48.120;11.576;2023-03-23T15:12:55;1.83;;;1.73;;
489;SDS011;231;48.120;11.576;2023-03-23T15:15:25;2.73;;;2.53;;
489;SDS011;231;48.120;11.576;2023-03-23T15:17:53;2.30;;;2.10;;
489;SDS011;231;48.120;11.576;2023-03-23T15:20:21;2.50;;;2.30;;
489;SDS011;231;48.120;11.576;2023-03-23T15:22:50;2.93;;;1.90;;
489;SDS011;231;48.120;11.576;2023-03-23T15:25:19;2.40;;;2.13;;
489;SDS011;231;48.120;11.576;2023-03-23T15:27:51;3.10;;;2.53;;
489;SDS011;231;48.120;11.576;2023-03-23T15:30:27;4.33;;;2.33;;
489;SDS011;231;48.120;11.576;2023-03-23T15:32:59;1.97;;;1.90;;
489;SDS011;231;48.120;11.576;2023-03-23T15:35:32;4.63;;;1.80;;
489;SDS011;231;48.120;11.576;2023-03-23T15:38:02;2.93;;;2.70;;
489;SDS011;231;48.120;11.576;2023-03-23T15:40:35;4.50;;;2.87;;
489;SDS011;231;48.120;11.576;2023-03-23T15:43:07;2.53;;;2.03;;
489;SDS011;231;48.120;11.576;2023-03-23T15:45:50;2.20;;;2.03;;
489;SDS011;231;48.120;11.576;2023-03-23T15:48:20;4.40;;;2.83;;
489;SDS011;231;48.120;11.576;2023-03-23T15:50:48;2.70;;;2.53;;
489;SDS011;231;48.120;11.576;2023-03-23T15:53:28;2.20;;;2.03;;
489;SDS011;231;48.120;11.576;2023-03-23T15:55:58;2.80;;;2.60;;
489;SDS011;231;48.120;11.576;2023-03-23T15:58:26;2.13;;;1.97;;
489;SDS011;231;48.120;11.576;2023-03-23T16:00:53;3.57;;;2.33;;